Time;durP1;ratioP1;P1;durP2;ratioP2;P2;SDS_P1;SDS_P2;PMS_P1;PMS_P2;Temp;Humidity;BMP_temperature;BMP_pressure;BME280_temperature;BME280_humidity;BME280_pressure;Samples;Min_cycle;Max_cycle;Signal;HPM_P1;HPM_P2
2023/07/20 00:01:52;;;;;;;6.73;5.33;;;17.40;99.90;;;;;;5072314;28;20196;-72
2023/07/20 00:04:18;;;;;;;5.50;5.00;;;17.40;99.90;;;;;;5073896;28;20166;-73
2023/07/20 00:06:43;;;;;;;5.83;5.40;;;17.50;99.90;;;;;;5073975;28;20205;-72
2023/07/20 00:09:09;;;;;;;5.63;5.13;;;17.40;99.90;;;;;;5071931;28;20197;-72
2023/07/20 00:11:38;;;;;;;9.33;5.43;;;17.40;99.90;;;;;;5073762;28;20177;-72
2023/07/20 00:14:05;;;;;;;5.90;5.40;;;17.50;99.90;;;;;;5073397;28;20208;-71
2023/07/20 00:16:30;;;;;;;5.90;5.40;;;17.50;99.90;;;;;;5073313;28;20683;-72
2023/07/20 00:18:56;;;;;;;6.00;5.43;;;17.60;99.90;;;;;;5073451;28;20214;-73
2023/07/20 00:21:21;;;;;;;5.87;5.37;;;17.60;99.90;;;;;;5073564;28;20170;-72
2023/07/20 00:23:47;;;;;;;5.87;5.00;;;17.60;99.90;;;;;;5073389;28;20202;-72
2023/07/20 00:26:13;;;;;;;6.80;5.77;;;17.60;99.90;;;;;;5073615;28;20178;-72
2023/07/20 00:28:38;;;;;;;9.27;5.80;;;17.70;99.90;;;;;;5074070;28;20269;-72
2023/07/20 00:31:04;;;;;;;5.63;5.23;;;17.70;99.90;;;;;;5073397;28;20186;-72
2023/07/20 00:33:30;;;;;;;5.93;5.37;;;17.70;99.90;;;;;;5073116;28;20550;-72
2023/07/20 00:35:56;;;;;;;9.53;5.17;;;17.70;99.90;;;;;;5073197;28;20220;-72
2023/07/20 00:38:22;;;;;;;5.47;5.07;;;17.70;99.90;;;;;;5073449;28;20731;-72
2023/07/20 00:40:49;;;;;;;5.97;5.47;;;17.60;99.90;;;;;;5071201;28;20565;-72
2023/07/20 00:43:15;;;;;;;6.63;5.40;;;17.60;99.90;;;;;;5072660;28;20597;-71
2023/07/20 00:45:41;;;;;;;5.70;5.20;;;17.60;99.90;;;;;;5073140;28;20185;-72
2023/07/20 00:48:07;;;;;;;6.00;5.17;;;17.60;99.90;;;;;;5054845;28;20682;-71
2023/07/20 00:50:34;;;;;;;5.10;4.63;;;17.60;99.90;;;;;;5072962;28;20661;-72
2023/07/20 00:53:02;;;;;;;5.93;5.20;;;17.60;99.90;;;;;;5072408;28;20194;-72
2023/07/20 00:55:28;;;;;;;5.70;5.20;;;17.60;99.90;;;;;;5055206;28;20538;-72
2023/07/20 00:57:54;;;;;;;6.13;5.50;;;17.50;99.90;;;;;;5073045;28;20170;-72
2023/07/20 01:00:20;;;;;;;6.67;6.00;;;17.50;99.90;;;;;;5072813;28;20173;-72
2023/07/20 01:02:46;;;;;;;7.53;6.70;;;17.60;99.90;;;;;;5072433;28;20244;-73
2023/07/20 01:05:13;;;;;;;6.33;5.70;;;17.60;99.90;;;;;;5072787;28;20178;-72
2023/07/20 01:07:56;;;;;;;6.30;5.50;;;17.60;99.90;;;;;;5072761;28;20167;-72
2023/07/20 01:10:38;;;;;;;8.93;6.00;;;17.60;99.90;;;;;;5054464;28;20228;-73
2023/07/20 01:13:05;;;;;;;9.73;6.07;;;17.60;99.90;;;;;;5071906;28;20289;-72
2023/07/20 01:15:33;;;;;;;8.57;6.17;;;17.60;99.90;;;;;;5070969;28;20209;-72
2023/07/20 01:18:01;;;;;;;5.53;5.10;;;17.60;99.90;;;;;;5054743;28;20730;-73
2023/07/20 01:20:29;;;;;;;6.83;5.47;;;17.60;99.90;;;;;;5072295;28;20158;-72
2023/07/20 01:23:07;;;;;;;5.83;5.30;;;17.60;99.90;;;;;;5071914;28;20193;-73
2023/07/20 01:26:02;;;;;;;8.30;5.47;;;17.50;99.90;;;;;;5072287;28;20174;-72
2023/07/20 01:28:57;;;;;;;5.47;4.93;;;17.50;99.90;;;;;;5072236;28;20255;-72
2023/07/20 01:31:28;;;;;;;6.00;5.33;;;17.50;99.90;;;;;;5036061;28;20186;-71
2023/07/20 01:33:58;;;;;;;5.67;5.17;;;17.40;99.90;;;;;;5071401;28;20734;-72
2023/07/20 01:36:26;;;;;;;8.40;5.50;;;17.50;99.90;;;;;;5072102;28;20177;-72
2023/07/20 01:38:53;;;;;;;6.17;5.67;;;17.50;99.90;;;;;;5071482;28;20167;-72
2023/07/20 01:41:19;;;;;;;5.90;5.40;;;17.50;99.90;;;;;;5071776;28;20672;-72
2023/07/20 01:43:44;;;;;;;6.10;5.50;;;17.50;99.90;;;;;;5053731;28;20271;-72
2023/07/20 01:46:10;;;;;;;5.67;5.17;;;17.60;99.90;;;;;;5071660;28;20613;-72
2023/07/20 01:48:36;;;;;;;5.43;5.03;;;17.60;99.90;;;;;;5069717;28;20261;-72
2023/07/20 01:51:01;;;;;;;6.67;5.10;;;17.60;99.90;;;;;;5071786;28;20182;-71
2023/07/20 01:53:27;;;;;;;8.33;5.40;;;17.60;99.90;;;;;;5071019;28;20293;-71
2023/07/20 01:55:54;;;;;;;8.97;5.60;;;17.60;99.90;;;;;;5071532;28;20173;-72
2023/07/20 01:58:20;;;;;;;7.47;5.17;;;17.50;99.90;;;;;;5071468;28;20193;-72
2023/07/20 02:00:45;;;;;;;5.53;5.00;;;17.40;99.90;;;;;;5053660;28;20208;-72
2023/07/20 02:03:11;;;;;;;5.40;4.90;;;17.30;99.90;;;;;;5053151;28;20198;-72
2023/07/20 02:05:37;;;;;;;5.37;5.07;;;17.20;99.90;;;;;;5071437;28;20189;-72
2023/07/20 02:08:03;;;;;;;6.17;5.33;;;17.10;99.90;;;;;;5071223;28;20253;-72
2023/07/20 02:10:29;;;;;;;5.70;5.30;;;16.90;99.90;;;;;;5071513;28;20170;-72
2023/07/20 02:12:54;;;;;;;5.77;5.30;;;16.80;99.90;;;;;;5070930;28;20225;-72
2023/07/20 02:15:21;;;;;;;5.33;4.93;;;16.80;99.90;;;;;;5071492;28;20642;-72
2023/07/20 02:17:46;;;;;;;7.23;5.80;;;16.70;99.90;;;;;;5071223;28;20166;-72
2023/07/20 02:20:12;;;;;;;6.37;5.73;;;16.60;99.90;;;;;;5069869;28;20177;-72
2023/07/20 02:22:39;;;;;;;6.03;5.60;;;16.50;99.90;;;;;;5070855;28;20190;-72
2023/07/20 02:25:06;;;;;;;6.43;5.83;;;16.40;99.90;;;;;;5070680;28;20265;-71
2023/07/20 02:27:34;;;;;;;6.37;5.70;;;16.30;99.90;;;;;;5053289;28;20173;-72
2023/07/20 02:30:00;;;;;;;6.73;6.20;;;16.30;99.90;;;;;;5053154;28;20243;-72
2023/07/20 02:32:26;;;;;;;6.10;5.53;;;16.30;99.90;;;;;;5070711;28;20251;-71
2023/07/20 02:34:52;;;;;;;7.37;5.70;;;16.20;99.90;;;;;;5070954;28;20644;-72
2023/07/20 02:37:17;;;;;;;7.07;6.37;;;16.20;99.90;;;;;;5071240;28;20166;-72
2023/07/20 02:39:43;;;;;;;6.47;5.87;;;16.20;99.90;;;;;;5071238;28;20166;-71
2023/07/20 02:42:09;;;;;;;10.00;5.70;;;16.20;99.90;;;;;;5070753;28;20657;-72
2023/07/20 02:44:34;;;;;;;7.00;6.50;;;16.20;99.90;;;;;;5070890;28;20197;-71
2023/07/20 02:47:00;;;;;;;9.57;6.27;;;16.20;99.90;;;;;;5071181;28;20198;-72
2023/07/20 02:49:26;;;;;;;8.40;6.17;;;16.30;99.90;;;;;;5052992;28;20540;-71
2023/07/20 02:51:52;;;;;;;6.37;5.77;;;16.30;99.90;;;;;;5070586;28;20540;-72
2023/07/20 02:54:17;;;;;;;7.27;6.37;;;16.40;99.90;;;;;;5068776;28;20205;-71
2023/07/20 02:56:43;;;;;;;8.10;6.97;;;16.30;99.90;;;;;;5070937;28;20247;-71
2023/07/20 02:59:09;;;;;;;6.50;5.50;;;16.30;99.90;;;;;;5070987;28;20645;-71
2023/07/20 03:01:34;;;;;;;7.27;6.47;;;16.30;99.90;;;;;;5070930;28;20547;-72
2023/07/20 03:04:00;;;;;;;8.03;5.47;;;16.30;99.90;;;;;;5052711;28;20248;-72
2023/07/20 03:06:25;;;;;;;6.83;6.07;;;16.20;99.90;;;;;;5070779;28;20236;-72
2023/07/20 03:08:53;;;;;;;6.10;5.60;;;16.20;99.90;;;;;;5071884;28;20232;-76
2023/07/20 03:11:20;;;;;;;9.53;6.20;;;16.20;99.90;;;;;;5054786;28;20200;-78
2023/07/20 03:13:46;;;;;;;6.10;5.60;;;16.30;99.90;;;;;;5073133;28;20206;-78
2023/07/20 03:16:15;;;;;;;5.87;5.13;;;16.30;99.90;;;;;;5072990;28;20173;-77
2023/07/20 03:18:44;;;;;;;10.10;5.47;;;16.30;99.90;;;;;;5072910;28;20180;-77
2023/07/20 03:21:13;;;;;;;8.00;5.90;;;16.40;99.90;;;;;;5072702;28;20600;-77
2023/07/20 03:23:40;;;;;;;6.33;5.20;;;16.30;99.90;;;;;;5072679;28;20277;-76
2023/07/20 03:26:08;;;;;;;11.07;6.50;;;16.30;99.90;;;;;;5072578;28;20210;-75
2023/07/20 03:28:34;;;;;;;6.10;5.60;;;16.20;99.90;;;;;;5070347;28;20570;-77
2023/07/20 03:31:00;;;;;;;6.73;5.40;;;16.20;99.90;;;;;;5072800;28;20173;-79
2023/07/20 03:33:29;;;;;;;6.70;5.90;;;16.10;99.90;;;;;;5072598;28;20210;-78
2023/07/20 03:35:55;;;;;;;6.37;5.77;;;16.10;99.90;;;;;;5074734;28;20171;-75
2023/07/20 03:38:21;;;;;;;7.90;5.67;;;16.10;99.90;;;;;;5058253;28;20264;-78
2023/07/20 03:40:56;;;;;;;10.57;6.97;;;16.00;99.90;;;;;;5076426;28;20170;-73
2023/07/20 03:43:22;;;;;;;6.80;6.20;;;16.00;99.90;;;;;;5055939;28;20316;-73
2023/07/20 03:45:49;;;;;;;6.37;5.80;;;15.90;99.90;;;;;;5074454;28;20257;-72
2023/07/20 03:48:24;;;;;;;6.93;6.33;;;15.90;99.90;;;;;;5074072;28;20184;-73
2023/07/20 03:50:51;;;;;;;6.23;5.63;;;15.90;99.90;;;;;;5056186;28;20174;-73
2023/07/20 03:53:17;;;;;;;6.40;5.80;;;15.90;99.90;;;;;;5073794;28;20202;-72
2023/07/20 03:55:48;;;;;;;11.53;6.17;;;16.00;99.90;;;;;;5073993;28;20644;-73
2023/07/20 03:58:14;;;;;;;7.77;6.87;;;16.00;99.90;;;;;;5056232;28;20174;-73
2023/07/20 04:00:40;;;;;;;7.93;5.73;;;16.10;99.90;;;;;;5072134;28;20170;-73
2023/07/20 04:03:06;;;;;;;6.30;5.80;;;16.10;99.90;;;;;;5055354;28;20202;-73
2023/07/20 04:05:31;;;;;;;8.27;6.00;;;16.20;99.90;;;;;;5055914;28;20223;-73
2023/07/20 04:07:58;;;;;;;7.23;6.10;;;16.30;99.90;;;;;;5073830;28;20170;-73
2023/07/20 04:10:23;;;;;;;9.20;6.27;;;16.40;99.90;;;;;;5073700;28;20170;-73
2023/07/20 04:12:49;;;;;;;10.63;6.23;;;16.40;99.90;;;;;;5073275;28;20201;-72
2023/07/20 04:15:15;;;;;;;6.83;5.43;;;16.50;99.90;;;;;;5074070;28;20688;-73
2023/07/20 04:17:41;;;;;;;6.60;6.10;;;16.50;99.90;;;;;;5073752;28;20193;-73
2023/07/20 04:20:08;;;;;;;10.47;6.13;;;16.50;99.90;;;;;;5073701;28;20323;-73
2023/07/20 04:22:34;;;;;;;6.73;5.53;;;16.60;99.90;;;;;;5072969;28;20235;-72
2023/07/20 04:25:00;;;;;;;7.63;6.00;;;16.70;99.90;;;;;;5073443;28;20260;-73
2023/07/20 04:27:26;;;;;;;9.07;5.87;;;16.70;99.90;;;;;;5073149;28;20186;-73
2023/07/20 04:29:52;;;;;;;7.23;5.80;;;16.80;99.90;;;;;;5072962;28;20204;-72
2023/07/20 04:32:17;;;;;;;6.33;5.83;;;16.90;99.90;;;;;;5072781;28;20194;-72
2023/07/20 04:34:43;;;;;;;7.27;5.97;;;16.90;99.90;;;;;;5070865;28;20190;-73
2023/07/20 04:37:09;;;;;;;6.00;5.40;;;16.90;99.90;;;;;;5055464;28;20170;-73
2023/07/20 04:39:34;;;;;;;7.90;5.93;;;17.00;99.90;;;;;;5073373;28;20166;-73
2023/07/20 04:42:00;;;;;;;7.00;6.23;;;17.00;99.90;;;;;;5072563;28;20198;-72
2023/07/20 04:44:25;;;;;;;8.77;5.87;;;17.10;99.90;;;;;;5055241;28;20197;-73
2023/07/20 04:46:51;;;;;;;10.40;6.20;;;17.10;99.90;;;;;;5072767;28;20251;-73
2023/07/20 04:49:17;;;;;;;7.90;6.47;;;17.10;99.90;;;;;;5073289;28;20182;-73
2023/07/20 04:51:42;;;;;;;9.37;5.83;;;17.10;99.90;;;;;;5072460;28;20182;-73
2023/07/20 04:54:08;;;;;;;5.97;5.47;;;17.10;99.90;;;;;;5054845;28;20288;-72
2023/07/20 04:56:33;;;;;;;11.40;5.93;;;17.10;99.90;;;;;;5073333;28;20182;-72
2023/07/20 04:58:59;;;;;;;7.07;5.30;;;17.10;99.90;;;;;;5073254;28;20250;-72
2023/07/20 05:01:26;;;;;;;10.10;5.80;;;17.20;99.90;;;;;;5072888;28;20173;-71
2023/07/20 05:03:52;;;;;;;9.93;7.07;;;17.20;99.90;;;;;;5073004;28;20686;-71
2023/07/20 05:06:18;;;;;;;7.67;5.97;;;17.30;99.90;;;;;;5073197;28;20257;-72
2023/07/20 05:08:44;;;;;;;6.53;5.93;;;17.30;99.90;;;;;;5071359;28;20555;-72
2023/07/20 05:11:10;;;;;;;7.00;5.60;;;17.40;99.90;;;;;;5073143;28;20177;-72
2023/07/20 05:13:36;;;;;;;12.20;6.50;;;17.40;99.90;;;;;;5054547;28;20206;-72
2023/07/20 05:16:01;;;;;;;6.67;6.00;;;17.50;99.90;;;;;;5054826;28;20177;-73
2023/07/20 05:18:27;;;;;;;8.83;6.73;;;17.40;99.90;;;;;;5072454;28;20646;-72
2023/07/20 05:20:54;;;;;;;6.73;6.13;;;17.50;99.90;;;;;;5072674;28;20169;-71
2023/07/20 05:23:20;;;;;;;7.13;6.47;;;17.60;99.90;;;;;;5072565;28;20182;-72
2023/07/20 05:25:46;;;;;;;6.77;5.70;;;17.70;99.90;;;;;;5072394;28;20189;-72
2023/07/20 05:28:12;;;;;;;6.20;5.67;;;18.00;99.90;;;;;;5054704;28;20661;-72
2023/07/20 05:30:37;;;;;;;10.47;6.80;;;18.20;99.90;;;;;;5054604;28;20174;-72
2023/07/20 05:33:03;;;;;;;7.10;6.13;;;18.50;99.90;;;;;;5072185;28;20828;-72
2023/07/20 05:35:29;;;;;;;12.60;7.33;;;18.70;99.90;;;;;;5072670;28;20251;-72
2023/07/20 05:37:55;;;;;;;9.37;7.07;;;18.80;99.90;;;;;;5054536;28;20261;-72
2023/07/20 05:40:21;;;;;;;8.63;6.77;;;19.00;99.90;;;;;;5070794;28;20170;-72
2023/07/20 05:42:47;;;;;;;6.83;6.13;;;19.20;99.90;;;;;;5071770;28;20285;-72
2023/07/20 05:45:14;;;;;;;9.03;6.07;;;19.40;99.90;;;;;;5072389;28;20204;-71
2023/07/20 05:47:39;;;;;;;6.07;5.47;;;19.50;99.90;;;;;;5072074;28;20206;-73
2023/07/20 05:50:06;;;;;;;10.10;6.37;;;19.60;99.90;;;;;;5072293;28;20920;-71
2023/07/20 05:52:32;;;;;;;9.93;6.63;;;19.60;99.90;;;;;;5071663;28;20625;-72
2023/07/20 05:54:57;;;;;;;7.77;7.07;;;19.50;99.90;;;;;;5072102;28;20200;-71
2023/07/20 05:57:23;;;;;;;7.82;6.38;;;19.60;99.90;;;;;;5072241;28;20224;-72
2023/07/20 05:59:48;;;;;;;10.43;7.30;;;19.70;99.90;;;;;;5071179;28;20190;-72
2023/07/20 06:02:14;;;;;;;8.73;6.70;;;19.90;99.90;;;;;;5071772;28;20225;-72
2023/07/20 06:04:40;;;;;;;7.28;6.57;;;20.00;99.90;;;;;;5054017;28;20583;-73
2023/07/20 06:07:07;;;;;;;10.55;7.85;;;20.10;99.90;;;;;;5054305;28;20179;-71
2023/07/20 06:09:33;;;;;;;10.15;7.38;;;20.40;99.90;;;;;;5072011;28;20249;-72
2023/07/20 06:11:59;;;;;;;8.00;6.95;;;20.90;99.90;;;;;;5071603;28;20185;-72
2023/07/20 06:14:24;;;;;;;7.88;6.97;;;21.10;99.90;;;;;;5052062;28;20210;-72
2023/07/20 06:16:50;;;;;;;8.95;7.43;;;20.80;99.90;;;;;;5053801;28;20645;-72
2023/07/20 06:19:15;;;;;;;9.30;7.05;;;20.70;99.90;;;;;;5071846;28;20185;-72
2023/07/20 06:21:42;;;;;;;9.23;8.27;;;20.80;99.90;;;;;;5054907;28;20170;-73
2023/07/20 06:24:07;;;;;;;9.07;7.63;;;20.90;99.90;;;;;;5066341;28;20177;-71
2023/07/20 06:26:38;;;;;;;13.73;8.73;;;21.20;99.90;;;;;;5053044;28;20197;-72
2023/07/20 06:29:06;;;;;;;10.98;8.55;;;21.50;99.90;;;;;;5053693;28;20185;-72
2023/07/20 06:31:32;;;;;;;10.50;8.02;;;21.80;99.90;;;;;;5071476;28;20201;-72
2023/07/20 06:33:57;;;;;;;9.93;8.80;;;21.90;99.90;;;;;;5071171;28;20225;-72
2023/07/20 06:36:23;;;;;;;8.73;7.82;;;21.60;99.90;;;;;;5071505;28;20249;-72
2023/07/20 06:38:49;;;;;;;9.68;8.35;;;21.80;99.90;;;;;;5053465;28;20185;-72
2023/07/20 06:41:14;;;;;;;7.10;6.50;;;22.20;99.90;;;;;;5070648;28;20181;-73
2023/07/20 06:43:40;;;;;;;10.15;9.02;;;22.60;99.90;;;;;;5069433;28;20293;-72
2023/07/20 06:46:05;;;;;;;11.60;10.23;;;22.70;99.90;;;;;;5070163;28;20556;-73
2023/07/20 06:48:31;;;;;;;13.85;10.45;;;22.50;99.90;;;;;;5051607;28;20217;-73
2023/07/20 06:50:57;;;;;;;12.05;8.90;;;22.20;99.90;;;;;;5068833;28;20185;-72
2023/07/20 06:53:22;;;;;;;12.43;11.18;;;22.10;99.90;;;;;;5052701;28;20209;-72
2023/07/20 06:55:48;;;;;;;10.50;9.60;;;22.30;99.90;;;;;;5070098;28;20536;-71
2023/07/20 06:58:14;;;;;;;9.35;8.40;;;22.40;99.90;;;;;;5070348;28;20633;-73
2023/07/20 07:00:40;;;;;;;9.38;7.45;;;22.80;99.90;;;;;;5070811;28;20694;-71
2023/07/20 07:03:05;;;;;;;11.75;7.03;;;23.20;99.90;;;;;;5070427;28;20652;-71
2023/07/20 07:05:31;;;;;;;1170.22;492.17;;;23.70;99.90;;;;;;5071286;28;20252;-71
2023/07/20 07:07:56;;;;;;;7.95;7.13;;;24.30;99.90;;;;;;5052668;28;20209;-71
2023/07/20 07:10:22;;;;;;;6.82;6.22;;;24.60;99.90;;;;;;5072342;28;20206;-72
2023/07/20 07:12:48;;;;;;;7.78;6.15;;;24.40;99.90;;;;;;5074147;28;20193;-72
2023/07/20 07:15:13;;;;;;;11.02;7.82;;;23.90;99.90;;;;;;5074523;28;20665;-71
2023/07/20 07:17:39;;;;;;;9.98;7.78;;;23.20;99.90;;;;;;5075008;28;20162;-71
2023/07/20 07:20:07;;;;;;;13.80;12.73;;;22.70;99.90;;;;;;5072582;28;20182;-71
2023/07/20 07:22:33;;;;;;;8.48;7.60;;;22.10;99.90;;;;;;5073683;28;20205;-71
2023/07/20 07:24:58;;;;;;;7.68;6.90;;;21.80;99.90;;;;;;5056408;28;20582;-71
2023/07/20 07:27:24;;;;;;;7.40;6.05;;;22.20;99.90;;;;;;5073400;28;20190;-71
2023/07/20 07:29:49;;;;;;;11.18;10.35;;;22.80;99.90;;;;;;5074394;28;20174;-72
2023/07/20 07:32:15;;;;;;;9.20;7.53;;;23.40;99.90;;;;;;5074241;28;20200;-72
2023/07/20 07:34:41;;;;;;;8.50;7.80;;;23.90;99.90;;;;;;5074861;28;20514;-71
2023/07/20 07:37:07;;;;;;;12.50;11.27;;;24.00;99.90;;;;;;5072949;28;20186;-72
2023/07/20 07:39:32;;;;;;;7.20;6.45;;;23.70;99.90;;;;;;5074489;28;20224;-71
2023/07/20 07:41:58;;;;;;;9.98;9.27;;;23.20;99.90;;;;;;5055918;28;20233;-70
2023/07/20 07:44:24;;;;;;;8.07;7.07;;;22.70;99.90;;;;;;5074493;28;20265;-70
2023/07/20 07:46:49;;;;;;;7.65;7.15;;;22.10;99.90;;;;;;5073845;28;20652;-72
2023/07/20 07:49:16;;;;;;;9.70;8.80;;;21.70;99.90;;;;;;5074034;28;20178;-72
2023/07/20 07:51:42;;;;;;;9.13;8.38;;;21.60;99.90;;;;;;5072941;28;20189;-72
2023/07/20 07:54:07;;;;;;;8.35;7.57;;;21.50;99.90;;;;;;5073352;28;20205;-72
2023/07/20 07:56:33;;;;;;;5.90;5.40;;;22.00;99.90;;;;;;5073723;28;20189;-72
2023/07/20 07:58:59;;;;;;;6.38;5.88;;;22.70;99.90;;;;;;5073780;28;20208;-71
2023/07/20 08:01:25;;;;;;;5.85;5.28;;;23.90;99.90;;;;;;5055884;28;20273;-71
2023/07/20 08:03:51;;;;;;;8.15;7.43;;;24.80;99.90;;;;;;5073850;28;20297;-72
2023/07/20 08:06:16;;;;;;;9.27;8.25;;;25.50;99.90;;;;;;5055919;28;20269;-72
2023/07/20 08:08:42;;;;;;;6.63;5.93;;;25.20;99.90;;;;;;5055989;28;20577;-72
2023/07/20 08:11:08;;;;;;;5.25;4.18;;;24.50;99.90;;;;;;5073806;28;20182;-70
2023/07/20 08:13:34;;;;;;;5.75;5.25;;;24.00;99.90;;;;;;5073612;28;20214;-71
2023/07/20 08:16:04;;;;;;;5.10;4.60;;;23.80;99.90;;;;;;5073202;28;20314;-72
2023/07/20 08:18:31;;;;;;;6.05;4.57;;;23.80;99.90;;;;;;5073906;28;20170;-72
2023/07/20 08:20:57;;;;;;;6.18;5.18;;;24.40;99.90;;;;;;5073248;28;20648;-72
2023/07/20 08:23:22;;;;;;;8.73;5.53;;;25.20;99.90;;;;;;5054424;28;20197;-72
2023/07/20 08:25:48;;;;;;;4.93;4.43;;;25.60;99.90;;;;;;5073412;28;20633;-72
2023/07/20 08:28:15;;;;;;;6.15;5.65;;;26.00;99.90;;;;;;5073541;28;20290;-72
2023/07/20 08:30:43;;;;;;;6.45;5.68;;;26.70;99.90;;;;;;5072996;28;20186;-72
2023/07/20 08:33:09;;;;;;;4.60;4.25;;;27.20;99.90;;;;;;5073156;28;20208;-72
2023/07/20 08:35:35;;;;;;;4.75;4.35;;;27.50;99.90;;;;;;5073256;28;20216;-72
2023/07/20 08:38:01;;;;;;;5.20;4.80;;;27.30;99.90;;;;;;5073295;28;20171;-72
2023/07/20 08:40:27;;;;;;;4.50;4.13;;;26.60;99.90;;;;;;5073430;28;20629;-72
2023/07/20 08:42:54;;;;;;;6.80;5.47;;;25.80;99.90;;;;;;5072523;28;20209;-72
2023/07/20 08:45:25;;;;;;;4.05;3.78;;;25.10;99.90;;;;;;5055361;28;20375;-72
2023/07/20 08:47:51;;;;;;;4.70;3.55;;;24.30;99.90;;;;;;5072781;28;20665;-72
2023/07/20 08:50:16;;;;;;;6.28;5.85;;;24.30;99.90;;;;;;5056232;28;20170;-71
2023/07/20 08:52:42;;;;;;;5.03;4.68;;;24.70;99.90;;;;;;5072622;28;20611;-71
2023/07/20 08:55:08;;;;;;;5.65;5.18;;;25.40;99.90;;;;;;5054886;28;20174;-73
2023/07/20 08:57:36;;;;;;;10.60;10.10;;;26.00;99.90;;;;;;5054690;28;20594;-72
2023/07/20 09:00:07;;;;;;;12.85;12.10;;;26.20;99.90;;;;;;5054765;28;20263;-72
2023/07/20 09:02:39;;;;;;;5.85;5.55;;;26.00;99.90;;;;;;5072338;28;20692;-72
2023/07/20 09:05:05;;;;;;;5.43;5.13;;;25.70;99.90;;;;;;5072815;28;20653;-72
2023/07/20 09:07:31;;;;;;;5.03;4.72;;;25.80;99.90;;;;;;5072644;28;20601;-72
2023/07/20 09:09:57;;;;;;;5.47;5.13;;;25.90;99.90;;;;;;5072622;28;20166;-71
2023/07/20 09:12:23;;;;;;;4.13;3.92;;;25.70;99.90;;;;;;5072223;28;20613;-72
2023/07/20 09:14:49;;;;;;;5.10;4.30;;;25.20;99.90;;;;;;5054446;28;20174;-72
2023/07/20 09:17:15;;;;;;;5.05;4.00;;;24.80;99.90;;;;;;5072549;28;20171;-72
2023/07/20 09:19:47;;;;;;;5.80;5.30;;;24.70;99.90;;;;;;5072185;28;20196;-71
2023/07/20 09:22:13;;;;;;;3.75;3.55;;;24.90;99.90;;;;;;5057819;28;20247;-72
2023/07/20 09:24:39;;;;;;;5.47;5.18;;;25.20;99.90;;;;;;5072363;28;20170;-72
2023/07/20 09:27:09;;;;;;;4.40;4.10;;;26.00;99.90;;;;;;5070720;28;20182;-71
2023/07/20 09:29:46;;;;;;;3.25;3.05;;;26.90;99.90;;;;;;5053036;28;20178;-71
2023/07/20 09:32:12;;;;;;;3.40;3.20;;;27.30;99.90;;;;;;5071897;28;20202;-71
2023/07/20 09:34:38;;;;;;;3.40;3.20;;;27.50;99.90;;;;;;5070759;28;20201;-72
2023/07/20 09:37:03;;;;;;;3.25;3.05;;;27.70;99.90;;;;;;5065061;28;20626;-72
2023/07/20 09:39:29;;;;;;;20.05;11.65;;;27.50;99.90;;;;;;5072417;28;20324;-72
2023/07/20 09:42:01;;;;;;;6.43;6.13;;;27.00;99.90;;;;;;5071866;28;20210;-72
2023/07/20 09:44:28;;;;;;;4.40;4.20;;;26.60;99.90;;;;;;5071704;28;20273;-72
2023/07/20 09:46:55;;;;;;;4.55;4.35;;;26.10;99.90;;;;;;5072243;28;20194;-72
2023/07/20 09:49:21;;;;;;;6.80;6.30;;;25.70;99.90;;;;;;5072244;28;20181;-72
2023/07/20 09:51:47;;;;;;;4.95;4.65;;;25.70;99.90;;;;;;5071963;28;20648;-72
2023/07/20 09:54:14;;;;;;;4.50;3.10;;;25.40;99.90;;;;;;5072182;28;20236;-72
2023/07/20 09:56:40;;;;;;;5.28;4.97;;;25.10;99.90;;;;;;5072117;28;20502;-71
2023/07/20 09:59:06;;;;;;;3.78;3.58;;;25.30;99.90;;;;;;5072058;28;20219;-72
2023/07/20 10:01:34;;;;;;;3.15;2.95;;;25.50;99.90;;;;;;5054141;28;20602;-71
2023/07/20 10:04:03;;;;;;;3.55;3.35;;;25.60;99.90;;;;;;5071756;28;20533;-71
2023/07/20 10:06:32;;;;;;;3.58;3.17;;;25.60;99.90;;;;;;5072202;28;20217;-72
2023/07/20 10:09:02;;;;;;;4.18;3.88;;;26.00;99.90;;;;;;5071851;28;20174;-72
2023/07/20 10:11:31;;;;;;;3.25;3.05;;;26.60;99.90;;;;;;5053711;28;20596;-72
2023/07/20 10:13:59;;;;;;;5.53;5.13;;;27.30;99.90;;;;;;5071486;28;20194;-72
2023/07/20 10:16:49;;;;;;;5.72;5.38;;;28.50;99.90;;;;;;5069840;28;20205;-72
2023/07/20 10:19:38;;;;;;;4.28;4.05;;;29.00;99.90;;;;;;5071745;28;20170;-72
2023/07/20 10:22:11;;;;;;;2.95;2.75;;;29.50;99.90;;;;;;5053326;28;20194;-72
2023/07/20 10:24:39;;;;;;;2.83;2.63;;;30.10;99.90;;;;;;5053715;28;20206;-72
2023/07/20 10:27:05;;;;;;;2.90;2.70;;;29.90;99.90;;;;;;5071577;28;20178;-72
2023/07/20 10:29:32;;;;;;;5.68;5.38;;;29.50;99.90;;;;;;5053732;28;20170;-71
2023/07/20 10:31:58;;;;;;;5.72;5.35;;;29.00;99.90;;;;;;5053163;28;20166;-71
2023/07/20 10:34:24;;;;;;;4.63;4.32;;;28.70;99.90;;;;;;5071564;28;20335;-71
2023/07/20 10:36:54;;;;;;;3.10;2.88;;;28.80;99.90;;;;;;5071391;28;20174;-71
2023/07/20 10:39:31;;;;;;;3.85;3.30;;;28.70;99.90;;;;;;5071370;28;20181;-72
2023/07/20 10:42:07;;;;;;;3.65;3.45;;;29.00;99.90;;;;;;5071255;28;20177;-71
2023/07/20 10:44:33;;;;;;;5.35;4.95;;;28.90;99.90;;;;;;5071034;28;20212;-71
2023/07/20 10:47:01;;;;;;;4.50;4.20;;;28.60;99.90;;;;;;5071388;28;20189;-71
2023/07/20 10:49:27;;;;;;;5.07;4.82;;;28.80;99.90;;;;;;5053638;28;20205;-72
2023/07/20 10:51:59;;;;;;;6.57;6.07;;;28.80;99.90;;;;;;5070982;28;20220;-71
2023/07/20 10:54:27;;;;;;;3.10;2.90;;;28.60;99.90;;;;;;5071487;28;20194;-71
2023/07/20 10:56:55;;;;;;;3.55;3.22;;;28.80;99.90;;;;;;5118272;22;20714;-70
2023/07/20 10:59:24;;;;;;;3.38;3.17;;;29.30;99.90;;;;;;5111809;28;20164;-71
2023/07/20 11:01:55;;;;;;;3.60;3.40;;;29.40;99.90;;;;;;5111497;28;20196;-70
2023/07/20 11:04:44;;;;;;;4.20;3.90;;;29.40;99.90;;;;;;5111806;28;20706;-72
2023/07/20 11:07:14;;;;;;;4.95;4.72;;;28.70;99.90;;;;;;5097365;28;20715;-71
2023/07/20 11:09:41;;;;;;;3.63;3.42;;;28.60;99.90;;;;;;5091493;28;20170;-70
2023/07/20 11:12:12;;;;;;;3.67;3.47;;;28.80;99.90;;;;;;5090760;28;20177;-71
2023/07/20 11:14:42;;;;;;;3.70;3.40;;;28.80;99.90;;;;;;5091475;28;20193;-70
2023/07/20 11:17:13;;;;;;;3.97;3.70;;;28.90;99.90;;;;;;5101841;28;20274;-71
2023/07/20 11:19:40;;;;;;;3.78;3.58;;;29.30;99.90;;;;;;5111162;28;20207;-71
2023/07/20 11:22:09;;;;;;;3.40;3.20;;;29.30;99.90;;;;;;5092877;28;20169;-71
2023/07/20 11:24:39;;;;;;;5.05;4.82;;;29.10;99.90;;;;;;5111633;28;20164;-71
2023/07/20 11:27:05;;;;;;;4.25;4.05;;;28.80;99.90;;;;;;5111454;28;20203;-70
2023/07/20 11:29:31;;;;;;;3.97;3.78;;;28.50;99.90;;;;;;5111680;28;20255;-71
2023/07/20 11:31:57;;;;;;;5.28;4.88;;;28.20;99.90;;;;;;5092864;28;20226;-70
2023/07/20 11:34:22;;;;;;;8.23;7.70;;;27.50;99.90;;;;;;5103433;28;20209;-71
2023/07/20 11:36:50;;;;;;;6.25;5.93;;;27.00;99.90;;;;;;5090862;28;20185;-70
2023/07/20 11:39:21;;;;;;;4.30;4.10;;;26.70;99.90;;;;;;5073556;28;20176;-71
2023/07/20 11:41:49;;;;;;;3.20;3.05;;;26.30;99.90;;;;;;5090877;28;20173;-72
2023/07/20 11:44:20;;;;;;;3.35;3.15;;;26.10;99.90;;;;;;5091054;28;20177;-72
2023/07/20 11:46:46;;;;;;;4.32;4.03;;;26.00;99.90;;;;;;5090534;28;20411;-71
2023/07/20 11:49:12;;;;;;;3.35;3.15;;;25.90;99.90;;;;;;5090893;28;20261;-70
2023/07/20 11:51:40;;;;;;;5.20;5.00;;;25.90;99.90;;;;;;5111178;28;20199;-71
2023/07/20 11:54:07;;;;;;;5.03;4.82;;;25.70;99.90;;;;;;5111236;28;20667;-71
2023/07/20 11:56:33;;;;;;;5.22;5.03;;;25.40;99.90;;;;;;5111196;28;20204;-71
2023/07/20 11:59:01;;;;;;;4.80;4.57;;;25.20;99.90;;;;;;5114843;28;20221;-70
2023/07/20 12:01:29;;;;;;;3.83;3.50;;;25.10;99.90;;;;;;5114675;28;20658;-70
2023/07/20 12:04:04;;;;;;;3.15;2.85;;;24.60;99.90;;;;;;5076358;28;20661;-71
2023/07/20 12:06:30;;;;;;;3.65;3.45;;;24.30;99.90;;;;;;5094497;28;20740;-71
2023/07/20 12:08:58;;;;;;;4.72;4.32;;;24.30;99.90;;;;;;5094301;28;20369;-71
2023/07/20 12:11:38;;;;;;;3.60;3.40;;;24.40;99.90;;;;;;5094222;28;20632;-71
2023/07/20 12:14:06;;;;;;;5.57;5.28;;;24.60;99.90;;;;;;5076164;28;20265;-70
2023/07/20 12:16:32;;;;;;;6.20;5.90;;;25.00;99.90;;;;;;5094230;28;20215;-70
2023/07/20 12:19:09;;;;;;;5.03;4.80;;;25.30;99.90;;;;;;5093950;28;20632;-70
2023/07/20 12:21:39;;;;;;;4.47;4.15;;;25.70;99.90;;;;;;5075241;28;20184;-70
2023/07/20 12:24:06;;;;;;;2.92;2.83;;;26.40;99.90;;;;;;5107239;28;20200;-71
2023/07/20 12:26:33;;;;;;;3.67;2.97;;;26.80;99.90;;;;;;5114179;28;20192;-71
2023/07/20 12:28:59;;;;;;;3.03;2.92;;;27.20;99.90;;;;;;5113839;28;20165;-71
2023/07/20 12:31:26;;;;;;;7.78;7.38;;;27.30;99.90;;;;;;5097977;28;20189;-70
2023/07/20 12:33:52;;;;;;;4.72;4.43;;;27.00;99.90;;;;;;5093653;28;20197;-70
2023/07/20 12:36:18;;;;;;;3.20;3.00;;;26.60;99.90;;;;;;5106970;28;20207;-71
2023/07/20 12:38:44;;;;;;;3.38;3.17;;;26.30;99.90;;;;;;5114174;28;20509;-70
2023/07/20 12:41:14;;;;;;;3.00;2.90;;;26.00;99.90;;;;;;5095672;28;20699;-71
2023/07/20 12:43:44;;;;;;;3.70;3.50;;;25.80;99.90;;;;;;5114078;28;20176;-71
2023/07/20 12:46:14;;;;;;;3.83;3.60;;;25.50;99.90;;;;;;5113466;28;20205;-70